sensor_id;sensor_type;location;lat;lon;timestamp;pressure;altitude;pressure_sealevel;temperature;humidity
55733;BME280;41637;52.364;9.910;2023-05-21T00:00:01;101173.95;;;13.34;84.50
55733;BME280;41637;52.364;9.910;2023-05-21T00:02:28;101168.95;;;13.32;84.52
55733;BME280;41637;52.364;9.910;2023-05-21T00:04:56;101164.98;;;13.29;84.67
55733;BME280;41637;52.364;9.910;2023-05-21T00:07:23;101165.60;;;13.27;84.96
55733;BME280;41637;52.364;9.910;2023-05-21T00:09:50;101162.44;;;13.23;85.05
55733;BME280;41637;52.364;9.910;2023-05-21T00:12:18;101158.77;;;13.20;85.15
55733;BME280;41637;52.364;9.910;2023-05-21T00:14:45;101156.66;;;13.17;85.34
55733;BME280;41637;52.364;9.910;2023-05-21T00:17:12;101160.27;;;13.13;85.41
55733;BME280;41637;52.364;9.910;2023-05-21T00:19:39;101152.16;;;13.10;85.74
55733;BME280;41637;52.364;9.910;2023-05-21T00:22:06;101150.73;;;13.06;85.96
55733;BME280;41637;52.364;9.910;2023-05-21T00:24:33;101146.67;;;13.04;86.21
55733;BME280;41637;52.364;9.910;2023-05-21T00:27:00;101144.77;;;13.01;86.46
55733;BME280;41637;52.364;9.910;2023-05-21T00:29:26;101139.94;;;12.98;86.71
55733;BME280;41637;52.364;9.910;2023-05-21T00:31:55;101139.13;;;12.96;86.83
55733;BME280;41637;52.364;9.910;2023-05-21T00:34:22;101135.16;;;12.94;87.07
55733;BME280;41637;52.364;9.910;2023-05-21T00:36:49;101131.82;;;12.92;87.29
55733;BME280;41637;52.364;9.910;2023-05-21T00:39:16;101131.50;;;12.90;87.60
55733;BME280;41637;52.364;9.910;2023-05-21T00:41:43;101130.85;;;12.89;87.80
55733;BME280;41637;52.364;9.910;2023-05-21T00:44:12;101127.02;;;12.88;87.70
55733;BME280;41637;52.364;9.910;2023-05-21T00:46:40;101127.30;;;12.87;87.75
55733;BME280;41637;52.364;9.910;2023-05-21T00:49:07;101123.91;;;12.85;87.95
55733;BME280;41637;52.364;9.910;2023-05-21T00:51:34;101123.16;;;12.84;88.21
55733;BME280;41637;52.364;9.910;2023-05-21T00:54:01;101116.82;;;12.82;88.16
55733;BME280;41637;52.364;9.910;2023-05-21T00:56:28;101118.15;;;12.82;88.08
55733;BME280;41637;52.364;9.910;2023-05-21T00:58:56;101114.85;;;12.81;88.33
55733;BME280;41637;52.364;9.910;2023-05-21T01:01:24;101113.19;;;12.80;88.40
55733;BME280;41637;52.364;9.910;2023-05-21T01:03:52;101112.35;;;12.80;88.37
55733;BME280;41637;52.364;9.910;2023-05-21T01:06:19;101107.34;;;12.78;88.47
55733;BME280;41637;52.364;9.910;2023-05-21T01:08:46;101109.51;;;12.78;88.37
55733;BME280;41637;52.364;9.910;2023-05-21T01:11:13;101108.78;;;12.77;88.68
55733;BME280;41637;52.364;9.910;2023-05-21T01:13:40;101109.02;;;12.75;88.86
55733;BME280;41637;52.364;9.910;2023-05-21T01:16:08;101108.36;;;12.74;88.86
55733;BME280;41637;52.364;9.910;2023-05-21T01:18:36;101110.29;;;12.73;88.83
55733;BME280;41637;52.364;9.910;2023-05-21T01:21:04;101106.40;;;12.73;89.05
55733;BME280;41637;52.364;9.910;2023-05-21T01:23:33;101106.92;;;12.71;89.04
55733;BME280;41637;52.364;9.910;2023-05-21T01:26:00;101106.09;;;12.71;88.97
55733;BME280;41637;52.364;9.910;2023-05-21T01:28:26;101106.63;;;12.71;89.08
55733;BME280;41637;52.364;9.910;2023-05-21T01:30:56;101109.89;;;12.70;89.01
55733;BME280;41637;52.364;9.910;2023-05-21T01:33:37;101107.58;;;12.69;89.07
55733;BME280;41637;52.364;9.910;2023-05-21T01:36:08;101102.37;;;12.66;89.24
55733;BME280;41637;52.364;9.910;2023-05-21T01:38:48;101103.33;;;12.64;89.18
55733;BME280;41637;52.364;9.910;2023-05-21T01:41:18;101103.45;;;12.61;89.27
55733;BME280;41637;52.364;9.910;2023-05-21T01:43:45;101099.99;;;12.60;89.38
55733;BME280;41637;52.364;9.910;2023-05-21T01:46:16;101096.88;;;12.58;89.42
55733;BME280;41637;52.364;9.910;2023-05-21T01:48:44;101102.23;;;12.56;89.30
55733;BME280;41637;52.364;9.910;2023-05-21T01:51:12;101102.73;;;12.54;89.53
55733;BME280;41637;52.364;9.910;2023-05-21T01:53:39;101100.81;;;12.52;89.69
55733;BME280;41637;52.364;9.910;2023-05-21T01:56:07;101100.07;;;12.51;89.54
55733;BME280;41637;52.364;9.910;2023-05-21T01:58:33;101093.76;;;12.49;89.63
55733;BME280;41637;52.364;9.910;2023-05-21T02:01:00;101096.87;;;12.48;89.71
55733;BME280;41637;52.364;9.910;2023-05-21T02:03:28;101099.00;;;12.46;89.67
55733;BME280;41637;52.364;9.910;2023-05-21T02:05:57;101101.14;;;12.45;89.54
55733;BME280;41637;52.364;9.910;2023-05-21T02:08:24;101097.08;;;12.41;89.63
55733;BME280;41637;52.364;9.910;2023-05-21T02:10:52;101100.19;;;12.39;89.50
55733;BME280;41637;52.364;9.910;2023-05-21T02:13:20;101101.95;;;12.38;89.79
55733;BME280;41637;52.364;9.910;2023-05-21T02:15:51;101102.30;;;12.36;89.91
55733;BME280;41637;52.364;9.910;2023-05-21T02:18:20;101095.69;;;12.33;89.90
55733;BME280;41637;52.364;9.910;2023-05-21T02:20:48;101093.05;;;12.32;89.89
55733;BME280;41637;52.364;9.910;2023-05-21T02:23:15;101100.61;;;12.29;89.86
55733;BME280;41637;52.364;9.910;2023-05-21T02:25:42;101098.87;;;12.26;90.14
55733;BME280;41637;52.364;9.910;2023-05-21T02:28:09;101096.27;;;12.23;90.03
55733;BME280;41637;52.364;9.910;2023-05-21T02:30:36;101094.48;;;12.20;89.99
55733;BME280;41637;52.364;9.910;2023-05-21T02:33:03;101097.85;;;12.17;90.08
55733;BME280;41637;52.364;9.910;2023-05-21T02:35:30;101096.10;;;12.16;90.24
55733;BME280;41637;52.364;9.910;2023-05-21T02:37:57;101099.88;;;12.14;90.40
55733;BME280;41637;52.364;9.910;2023-05-21T02:40:25;101095.57;;;12.11;90.30
55733;BME280;41637;52.364;9.910;2023-05-21T02:42:52;101092.23;;;12.08;90.54
55733;BME280;41637;52.364;9.910;2023-05-21T02:45:19;101090.79;;;12.05;90.38
55733;BME280;41637;52.364;9.910;2023-05-21T02:47:46;101090.40;;;12.02;90.62
55733;BME280;41637;52.364;9.910;2023-05-21T02:50:13;101087.42;;;12.00;90.70
55733;BME280;41637;52.364;9.910;2023-05-21T02:52:40;101087.49;;;11.98;90.74
55733;BME280;41637;52.364;9.910;2023-05-21T02:55:08;101087.01;;;11.96;90.76
55733;BME280;41637;52.364;9.910;2023-05-21T02:57:36;101086.85;;;11.94;90.84
55733;BME280;41637;52.364;9.910;2023-05-21T03:00:03;101079.62;;;11.93;90.86
55733;BME280;41637;52.364;9.910;2023-05-21T03:02:32;101080.63;;;11.90;90.90
55733;BME280;41637;52.364;9.910;2023-05-21T03:04:58;101080.02;;;11.87;91.05
55733;BME280;41637;52.364;9.910;2023-05-21T03:07:26;101075.63;;;11.85;91.22
55733;BME280;41637;52.364;9.910;2023-05-21T03:09:53;101074.88;;;11.84;91.22
55733;BME280;41637;52.364;9.910;2023-05-21T03:12:20;101075.38;;;11.82;91.08
55733;BME280;41637;52.364;9.910;2023-05-21T03:14:48;101079.23;;;11.81;91.33
55733;BME280;41637;52.364;9.910;2023-05-21T03:17:16;101073.14;;;11.79;91.35
55733;BME280;41637;52.364;9.910;2023-05-21T03:19:44;101071.48;;;11.78;91.35
55733;BME280;41637;52.364;9.910;2023-05-21T03:22:11;101071.06;;;11.77;91.33
55733;BME280;41637;52.364;9.910;2023-05-21T03:24:38;101070.73;;;11.77;91.51
55733;BME280;41637;52.364;9.910;2023-05-21T03:27:05;101065.85;;;11.74;91.54
55733;BME280;41637;52.364;9.910;2023-05-21T03:29:33;101066.69;;;11.72;91.63
55733;BME280;41637;52.364;9.910;2023-05-21T03:32:01;101059.20;;;11.69;91.61
55733;BME280;41637;52.364;9.910;2023-05-21T03:34:28;101058.45;;;11.66;91.62
55733;BME280;41637;52.364;9.910;2023-05-21T03:36:55;101053.14;;;11.65;92.00
55733;BME280;41637;52.364;9.910;2023-05-21T03:39:22;101058.83;;;11.65;92.15
55733;BME280;41637;52.364;9.910;2023-05-21T03:41:49;101057.53;;;11.65;92.23
55733;BME280;41637;52.364;9.910;2023-05-21T03:44:17;101055.55;;;11.67;92.27
55733;BME280;41637;52.364;9.910;2023-05-21T03:46:44;101055.55;;;11.69;92.38
55733;BME280;41637;52.364;9.910;2023-05-21T03:49:12;101057.40;;;11.71;92.27
55733;BME280;41637;52.364;9.910;2023-05-21T03:51:39;101053.83;;;11.74;92.13
55733;BME280;41637;52.364;9.910;2023-05-21T03:54:05;101062.39;;;11.77;92.22
55733;BME280;41637;52.364;9.910;2023-05-21T03:56:32;101066.17;;;11.80;92.12
55733;BME280;41637;52.364;9.910;2023-05-21T03:58:59;101066.23;;;11.83;91.79
55733;BME280;41637;52.364;9.910;2023-05-21T04:01:27;101067.35;;;11.86;91.79
55733;BME280;41637;52.364;9.910;2023-05-21T04:03:54;101068.86;;;11.89;91.62
55733;BME280;41637;52.364;9.910;2023-05-21T04:06:22;101069.54;;;11.92;91.58
55733;BME280;41637;52.364;9.910;2023-05-21T04:08:49;101073.79;;;11.94;91.54
55733;BME280;41637;52.364;9.910;2023-05-21T04:11:17;101073.11;;;11.97;91.59
55733;BME280;41637;52.364;9.910;2023-05-21T04:13:44;101070.87;;;11.99;91.54
55733;BME280;41637;52.364;9.910;2023-05-21T04:16:11;101068.96;;;12.02;91.24
55733;BME280;41637;52.364;9.910;2023-05-21T04:18:40;101075.75;;;12.06;91.31
55733;BME280;41637;52.364;9.910;2023-05-21T04:21:11;101073.73;;;12.11;91.21
55733;BME280;41637;52.364;9.910;2023-05-21T04:23:37;101068.08;;;12.16;91.08
55733;BME280;41637;52.364;9.910;2023-05-21T04:26:04;101070.66;;;12.21;91.07
55733;BME280;41637;52.364;9.910;2023-05-21T04:28:33;101066.71;;;12.26;91.00
55733;BME280;41637;52.364;9.910;2023-05-21T04:31:01;101064.58;;;12.33;90.77
55733;BME280;41637;52.364;9.910;2023-05-21T04:33:28;101063.19;;;12.37;90.60
55733;BME280;41637;52.364;9.910;2023-05-21T04:35:55;101064.09;;;12.43;90.68
55733;BME280;41637;52.364;9.910;2023-05-21T04:38:23;101068.33;;;12.51;90.54
55733;BME280;41637;52.364;9.910;2023-05-21T04:40:51;101065.47;;;12.58;90.24
55733;BME280;41637;52.364;9.910;2023-05-21T04:43:18;101066.73;;;12.64;90.06
55733;BME280;41637;52.364;9.910;2023-05-21T04:45:52;101063.98;;;12.73;90.00
55733;BME280;41637;52.364;9.910;2023-05-21T04:48:23;101065.04;;;12.82;89.84
55733;BME280;41637;52.364;9.910;2023-05-21T04:50:51;101066.11;;;12.92;89.63
55733;BME280;41637;52.364;9.910;2023-05-21T04:53:19;101063.95;;;13.02;89.01
55733;BME280;41637;52.364;9.910;2023-05-21T04:55:46;101062.80;;;13.13;89.16
55733;BME280;41637;52.364;9.910;2023-05-21T04:58:13;101062.69;;;13.24;88.88
55733;BME280;41637;52.364;9.910;2023-05-21T05:00:43;101066.33;;;13.40;88.85
55733;BME280;41637;52.364;9.910;2023-05-21T05:03:12;101065.30;;;13.55;88.27
55733;BME280;41637;52.364;9.910;2023-05-21T05:05:39;101061.14;;;13.67;87.79
55733;BME280;41637;52.364;9.910;2023-05-21T05:08:06;101062.48;;;13.79;87.28
55733;BME280;41637;52.364;9.910;2023-05-21T05:10:33;101063.43;;;13.91;86.91
55733;BME280;41637;52.364;9.910;2023-05-21T05:13:00;101065.31;;;14.01;86.70
55733;BME280;41637;52.364;9.910;2023-05-21T05:15:27;101063.54;;;14.11;86.33
55733;BME280;41637;52.364;9.910;2023-05-21T05:17:54;101064.98;;;14.20;85.87
55733;BME280;41637;52.364;9.910;2023-05-21T05:20:22;101062.63;;;14.28;85.73
55733;BME280;41637;52.364;9.910;2023-05-21T05:22:49;101059.85;;;14.37;85.50
55733;BME280;41637;52.364;9.910;2023-05-21T05:25:15;101059.27;;;14.44;84.90
55733;BME280;41637;52.364;9.910;2023-05-21T05:27:42;101055.59;;;14.51;84.66
55733;BME280;41637;52.364;9.910;2023-05-21T05:30:09;101063.19;;;14.57;84.00
55733;BME280;41637;52.364;9.910;2023-05-21T05:32:36;101060.12;;;14.63;84.05
55733;BME280;41637;52.364;9.910;2023-05-21T05:35:03;101059.27;;;14.69;83.55
55733;BME280;41637;52.364;9.910;2023-05-21T05:37:30;101058.60;;;14.75;83.29
55733;BME280;41637;52.364;9.910;2023-05-21T05:39:58;101062.85;;;14.83;83.16
55733;BME280;41637;52.364;9.910;2023-05-21T05:42:25;101061.82;;;14.93;82.92
55733;BME280;41637;52.364;9.910;2023-05-21T05:44:52;101064.39;;;15.02;82.47
55733;BME280;41637;52.364;9.910;2023-05-21T05:47:19;101062.27;;;15.09;82.19
55733;BME280;41637;52.364;9.910;2023-05-21T05:49:47;101057.94;;;15.20;82.14
55733;BME280;41637;52.364;9.910;2023-05-21T05:52:14;101057.55;;;15.32;81.48
55733;BME280;41637;52.364;9.910;2023-05-21T05:54:41;101058.97;;;15.36;80.77
55733;BME280;41637;52.364;9.910;2023-05-21T05:57:08;101059.84;;;15.39;80.69
55733;BME280;41637;52.364;9.910;2023-05-21T05:59:34;101064.20;;;15.49;80.77
55733;BME280;41637;52.364;9.910;2023-05-21T06:02:02;101061.31;;;15.61;80.29
55733;BME280;41637;52.364;9.910;2023-05-21T06:04:28;101060.55;;;15.68;79.59
55733;BME280;41637;52.364;9.910;2023-05-21T06:06:56;101054.48;;;15.75;79.49
55733;BME280;41637;52.364;9.910;2023-05-21T06:09:25;101061.92;;;15.82;78.95
55733;BME280;41637;52.364;9.910;2023-05-21T06:11:52;101060.98;;;15.86;78.80
55733;BME280;41637;52.364;9.910;2023-05-21T06:14:19;101054.17;;;15.94;78.92
55733;BME280;41637;52.364;9.910;2023-05-21T06:16:46;101058.52;;;15.98;78.01
55733;BME280;41637;52.364;9.910;2023-05-21T06:19:12;101061.23;;;16.00;78.01
55733;BME280;41637;52.364;9.910;2023-05-21T06:21:39;101062.06;;;16.03;78.05
55733;BME280;41637;52.364;9.910;2023-05-21T06:24:06;101059.28;;;16.12;78.06
55733;BME280;41637;52.364;9.910;2023-05-21T06:26:33;101054.85;;;16.18;77.92
55733;BME280;41637;52.364;9.910;2023-05-21T06:29:00;101055.76;;;16.29;77.69
55733;BME280;41637;52.364;9.910;2023-05-21T06:31:28;101053.11;;;16.40;77.47
55733;BME280;41637;52.364;9.910;2023-05-21T06:33:55;101057.48;;;16.54;77.35
55733;BME280;41637;52.364;9.910;2023-05-21T06:36:22;101055.46;;;16.67;76.56
55733;BME280;41637;52.364;9.910;2023-05-21T06:38:51;101056.39;;;16.80;76.48
55733;BME280;41637;52.364;9.910;2023-05-21T06:41:18;101053.01;;;16.95;76.45
55733;BME280;41637;52.364;9.910;2023-05-21T06:43:45;101053.87;;;17.16;76.33
55733;BME280;41637;52.364;9.910;2023-05-21T06:46:11;101054.23;;;17.35;75.56
55733;BME280;41637;52.364;9.910;2023-05-21T06:48:38;101052.98;;;17.45;74.46
55733;BME280;41637;52.364;9.910;2023-05-21T06:51:06;101056.77;;;17.56;74.34
55733;BME280;41637;52.364;9.910;2023-05-21T06:53:32;101056.77;;;17.67;74.19
55733;BME280;41637;52.364;9.910;2023-05-21T06:56:00;101056.30;;;17.80;73.46
55733;BME280;41637;52.364;9.910;2023-05-21T06:58:27;101053.58;;;17.85;72.39
55733;BME280;41637;52.364;9.910;2023-05-21T07:00:57;101051.84;;;17.95;72.59
55733;BME280;41637;52.364;9.910;2023-05-21T07:03:24;101050.25;;;18.10;72.14
55733;BME280;41637;52.364;9.910;2023-05-21T07:05:52;101052.36;;;18.24;71.97
55733;BME280;41637;52.364;9.910;2023-05-21T07:08:19;101052.61;;;18.40;71.62
55733;BME280;41637;52.364;9.910;2023-05-21T07:10:46;101050.82;;;18.53;70.76
55733;BME280;41637;52.364;9.910;2023-05-21T07:13:13;101048.52;;;18.58;70.32
55733;BME280;41637;52.364;9.910;2023-05-21T07:15:40;101048.47;;;18.68;70.62
55733;BME280;41637;52.364;9.910;2023-05-21T07:18:07;101040.79;;;18.83;70.54
55733;BME280;41637;52.364;9.910;2023-05-21T07:20:35;101043.48;;;18.98;70.03
55733;BME280;41637;52.364;9.910;2023-05-21T07:23:03;101046.87;;;19.09;69.70
55733;BME280;41637;52.364;9.910;2023-05-21T07:25:30;101039.21;;;19.22;69.15
55733;BME280;41637;52.364;9.910;2023-05-21T07:27:57;101033.77;;;19.27;68.09
55733;BME280;41637;52.364;9.910;2023-05-21T07:30:24;101031.45;;;19.30;68.03
55733;BME280;41637;52.364;9.910;2023-05-21T07:32:52;101029.08;;;19.42;68.40
55733;BME280;41637;52.364;9.910;2023-05-21T07:35:20;101028.36;;;19.50;67.78
55733;BME280;41637;52.364;9.910;2023-05-21T07:37:46;101029.29;;;19.56;67.63
55733;BME280;41637;52.364;9.910;2023-05-21T07:40:13;101034.89;;;19.68;67.71
55733;BME280;41637;52.364;9.910;2023-05-21T07:42:40;101034.45;;;19.84;67.54
55733;BME280;41637;52.364;9.910;2023-05-21T07:45:07;101033.11;;;19.97;66.90
55733;BME280;41637;52.364;9.910;2023-05-21T07:47:34;101035.25;;;20.05;66.25
55733;BME280;41637;52.364;9.910;2023-05-21T07:50:02;101035.79;;;20.15;66.09
55733;BME280;41637;52.364;9.910;2023-05-21T07:52:29;101036.04;;;20.23;65.62
55733;BME280;41637;52.364;9.910;2023-05-21T07:54:56;101041.02;;;20.33;65.67
55733;BME280;41637;52.364;9.910;2023-05-21T07:57:23;101039.27;;;20.41;64.99
55733;BME280;41637;52.364;9.910;2023-05-21T07:59:50;101041.86;;;20.51;64.90
55733;BME280;41637;52.364;9.910;2023-05-21T08:02:17;101036.52;;;20.67;65.21
55733;BME280;41637;52.364;9.910;2023-05-21T08:04:45;101035.34;;;20.83;64.26
55733;BME280;41637;52.364;9.910;2023-05-21T08:07:12;101030.83;;;20.91;63.73
55733;BME280;41637;52.364;9.910;2023-05-21T08:09:39;101031.71;;;20.94;63.36
55733;BME280;41637;52.364;9.910;2023-05-21T08:12:06;101029.87;;;21.03;63.46
55733;BME280;41637;52.364;9.910;2023-05-21T08:14:34;101028.69;;;21.11;63.07
55733;BME280;41637;52.364;9.910;2023-05-21T08:17:00;101027.18;;;21.17;63.08
55733;BME280;41637;52.364;9.910;2023-05-21T08:19:27;101028.67;;;21.26;62.80
55733;BME280;41637;52.364;9.910;2023-05-21T08:21:54;101024.48;;;21.42;63.03
55733;BME280;41637;52.364;9.910;2023-05-21T08:24:22;101026.88;;;21.53;61.96
55733;BME280;41637;52.364;9.910;2023-05-21T08:26:49;101026.65;;;21.52;61.26
55733;BME280;41637;52.364;9.910;2023-05-21T08:29:16;101028.70;;;21.57;61.75
55733;BME280;41637;52.364;9.910;2023-05-21T08:31:43;101032.15;;;21.63;62.04
55733;BME280;41637;52.364;9.910;2023-05-21T08:34:10;101028.16;;;21.69;61.39
55733;BME280;41637;52.364;9.910;2023-05-21T08:36:37;101028.86;;;21.69;60.83
55733;BME280;41637;52.364;9.910;2023-05-21T08:39:04;101026.23;;;21.75;61.13
55733;BME280;41637;52.364;9.910;2023-05-21T08:41:32;101028.64;;;21.89;60.91
55733;BME280;41637;52.364;9.910;2023-05-21T08:44:01;101030.42;;;22.01;60.66
55733;BME280;41637;52.364;9.910;2023-05-21T08:46:32;101028.84;;;22.13;61.15
55733;BME280;41637;52.364;9.910;2023-05-21T08:49:02;101031.63;;;22.31;60.41
55733;BME280;41637;52.364;9.910;2023-05-21T08:51:29;101029.41;;;22.48;60.14
55733;BME280;41637;52.364;9.910;2023-05-21T08:53:58;101028.14;;;22.65;59.82
55733;BME280;41637;52.364;9.910;2023-05-21T08:56:27;101020.89;;;22.78;59.32
55733;BME280;41637;52.364;9.910;2023-05-21T08:58:57;101022.45;;;22.90;58.64
55733;BME280;41637;52.364;9.910;2023-05-21T09:01:25;101015.48;;;22.97;57.83
55733;BME280;41637;52.364;9.910;2023-05-21T09:03:55;101017.14;;;23.10;57.80
55733;BME280;41637;52.364;9.910;2023-05-21T09:06:34;101020.08;;;23.24;57.57
55733;BME280;41637;52.364;9.910;2023-05-21T09:09:12;101024.89;;;23.29;57.39
55733;BME280;41637;52.364;9.910;2023-05-21T09:11:41;101017.76;;;23.39;57.41
55733;BME280;41637;52.364;9.910;2023-05-21T09:14:10;101017.04;;;23.52;56.89
55733;BME280;41637;52.364;9.910;2023-05-21T09:16:36;101020.38;;;23.65;56.34
55733;BME280;41637;52.364;9.910;2023-05-21T09:19:03;101024.73;;;23.78;55.78
55733;BME280;41637;52.364;9.910;2023-05-21T09:21:30;101020.65;;;23.92;55.99
55733;BME280;41637;52.364;9.910;2023-05-21T09:23:58;101018.90;;;24.08;55.42
55733;BME280;41637;52.364;9.910;2023-05-21T09:26:26;101022.55;;;24.17;54.81
55733;BME280;41637;52.364;9.910;2023-05-21T09:28:58;101025.64;;;24.17;54.26
55733;BME280;41637;52.364;9.910;2023-05-21T09:31:26;101025.13;;;24.20;54.31
55733;BME280;41637;52.364;9.910;2023-05-21T09:33:53;101026.89;;;24.22;54.11
55733;BME280;41637;52.364;9.910;2023-05-21T09:36:23;101027.64;;;24.28;54.30
55733;BME280;41637;52.364;9.910;2023-05-21T09:38:50;101028.16;;;24.33;53.85
55733;BME280;41637;52.364;9.910;2023-05-21T09:41:30;101029.89;;;24.32;53.64
55733;BME280;41637;52.364;9.910;2023-05-21T09:43:59;101029.16;;;24.35;54.49
55733;BME280;41637;52.364;9.910;2023-05-21T09:46:26;101024.89;;;24.38;54.10
55733;BME280;41637;52.364;9.910;2023-05-21T09:48:54;101030.16;;;24.45;54.35
55733;BME280;41637;52.364;9.910;2023-05-21T09:51:21;101028.36;;;24.54;54.72
55733;BME280;41637;52.364;9.910;2023-05-21T09:53:56;101025.60;;;24.63;54.87
55733;BME280;41637;52.364;9.910;2023-05-21T09:56:27;101025.98;;;24.73;54.40
55733;BME280;41637;52.364;9.910;2023-05-21T09:58:59;101020.86;;;24.79;53.35
55733;BME280;41637;52.364;9.910;2023-05-21T10:01:27;101021.56;;;24.86;53.45
55733;BME280;41637;52.364;9.910;2023-05-21T10:03:57;101019.65;;;24.95;53.23
55733;BME280;41637;52.364;9.910;2023-05-21T10:06:27;101016.40;;;25.04;53.20
55733;BME280;41637;52.364;9.910;2023-05-21T10:08:55;101014.67;;;25.18;52.85
55733;BME280;41637;52.364;9.910;2023-05-21T10:11:24;101017.02;;;25.28;52.04
55733;BME280;41637;52.364;9.910;2023-05-21T10:14:29;101011.48;;;25.29;52.18
55733;BME280;41637;52.364;9.910;2023-05-21T10:16:49;101008.52;;;25.35;51.87
55733;BME280;41637;52.364;9.910;2023-05-21T10:19:18;101008.67;;;25.47;51.79
55733;BME280;41637;52.364;9.910;2023-05-21T10:21:46;101005.94;;;25.62;52.02
55733;BME280;41637;52.364;9.910;2023-05-21T10:24:14;101002.79;;;25.62;51.25
55733;BME280;41637;52.364;9.910;2023-05-21T10:26:41;101001.60;;;25.65;50.96
55733;BME280;41637;52.364;9.910;2023-05-21T10:29:08;101005.08;;;25.70;50.90
55733;BME280;41637;52.364;9.910;2023-05-21T10:31:37;101006.08;;;25.77;51.16
55733;BME280;41637;52.364;9.910;2023-05-21T10:34:04;101001.03;;;25.98;50.68
55733;BME280;41637;52.364;9.910;2023-05-21T10:36:34;100995.75;;;26.12;50.05
55733;BME280;41637;52.364;9.910;2023-05-21T10:39:02;100997.17;;;26.19;49.77
55733;BME280;41637;52.364;9.910;2023-05-21T10:41:35;100994.45;;;26.26;50.07
55733;BME280;41637;52.364;9.910;2023-05-21T10:44:31;100992.05;;;26.33;49.24
55733;BME280;41637;52.364;9.910;2023-05-21T10:47:46;100986.87;;;26.52;49.26
55733;BME280;41637;52.364;9.910;2023-05-21T10:53:15;100979.17;;;26.88;48.12
55733;BME280;41637;52.364;9.910;2023-05-21T10:58:38;100976.71;;;27.07;47.58
55733;BME280;41637;52.364;9.910;2023-05-21T11:01:10;100970.27;;;27.29;47.36
55733;BME280;41637;52.364;9.910;2023-05-21T11:03:38;100971.54;;;27.56;47.40
55733;BME280;41637;52.364;9.910;2023-05-21T11:06:05;100973.60;;;27.64;45.56
55733;BME280;41637;52.364;9.910;2023-05-21T11:08:32;100963.83;;;27.59;45.51
55733;BME280;41637;52.364;9.910;2023-05-21T11:11:02;100961.11;;;27.56;46.36
55733;BME280;41637;52.364;9.910;2023-05-21T11:13:44;100959.50;;;27.60;46.09
55733;BME280;41637;52.364;9.910;2023-05-21T11:16:22;100953.36;;;27.65;45.71
55733;BME280;41637;52.364;9.910;2023-05-21T11:21:21;100953.14;;;27.92;45.46
55733;BME280;41637;52.364;9.910;2023-05-21T11:23:54;100950.99;;;28.08;44.76
55733;BME280;41637;52.364;9.910;2023-05-21T11:26:25;100946.84;;;28.21;44.30
55733;BME280;41637;52.364;9.910;2023-05-21T11:31:29;100945.94;;;28.28;43.80
55733;BME280;41637;52.364;9.910;2023-05-21T11:34:23;100945.43;;;28.25;43.45
55733;BME280;41637;52.364;9.910;2023-05-21T11:39:41;100936.84;;;28.39;44.52
55733;BME280;41637;52.364;9.910;2023-05-21T11:42:08;100938.98;;;28.62;44.68
55733;BME280;41637;52.364;9.910;2023-05-21T11:44:47;100932.23;;;28.87;44.31
55733;BME280;41637;52.364;9.910;2023-05-21T11:47:17;100932.23;;;28.99;43.57
55733;BME280;41637;52.364;9.910;2023-05-21T11:49:44;100928.27;;;29.15;43.62
55733;BME280;41637;52.364;9.910;2023-05-21T11:52:12;100929.23;;;29.37;43.19
55733;BME280;41637;52.364;9.910;2023-05-21T11:54:46;100931.81;;;29.70;42.66
55733;BME280;41637;52.364;9.910;2023-05-21T11:57:17;100935.33;;;29.93;41.56
55733;BME280;41637;52.364;9.910;2023-05-21T11:59:45;100934.79;;;30.15;40.95
55733;BME280;41637;52.364;9.910;2023-05-21T12:02:17;100932.74;;;30.28;39.76
55733;BME280;41637;52.364;9.910;2023-05-21T12:04:45;100935.58;;;30.58;39.46
55733;BME280;41637;52.364;9.910;2023-05-21T12:07:15;100933.80;;;30.88;38.99
55733;BME280;41637;52.364;9.910;2023-05-21T12:09:47;100931.29;;;31.08;38.61
55733;BME280;41637;52.364;9.910;2023-05-21T12:12:15;100927.52;;;31.20;38.50
55733;BME280;41637;52.364;9.910;2023-05-21T12:14:47;100934.85;;;31.31;38.08
55733;BME280;41637;52.364;9.910;2023-05-21T12:17:16;100934.35;;;31.44;37.32
55733;BME280;41637;52.364;9.910;2023-05-21T12:19:44;100928.54;;;31.60;37.42
55733;BME280;41637;52.364;9.910;2023-05-21T12:22:11;100927.95;;;31.59;36.72
55733;BME280;41637;52.364;9.910;2023-05-21T12:24:38;100927.27;;;31.57;36.29
55733;BME280;41637;52.364;9.910;2023-05-21T12:27:06;100922.76;;;31.65;36.30
55733;BME280;41637;52.364;9.910;2023-05-21T12:29:40;100922.70;;;31.92;36.43
55733;BME280;41637;52.364;9.910;2023-05-21T12:32:20;100915.73;;;32.08;35.23
55733;BME280;41637;52.364;9.910;2023-05-21T12:34:48;100917.13;;;31.98;35.51
55733;BME280;41637;52.364;9.910;2023-05-21T12:37:21;100917.59;;;32.00;35.58
55733;BME280;41637;52.364;9.910;2023-05-21T12:39:49;100917.05;;;32.01;35.91
55733;BME280;41637;52.364;9.910;2023-05-21T12:42:26;100919.02;;;32.00;36.10
55733;BME280;41637;52.364;9.910;2023-05-21T12:44:55;100918.47;;;31.88;36.21
55733;BME280;41637;52.364;9.910;2023-05-21T12:47:24;100918.08;;;31.79;36.62
55733;BME280;41637;52.364;9.910;2023-05-21T12:50:00;100917.75;;;31.71;36.53
55733;BME280;41637;52.364;9.910;2023-05-21T12:52:27;100917.98;;;31.86;36.49
55733;BME280;41637;52.364;9.910;2023-05-21T12:54:55;100919.33;;;31.93;35.45
55733;BME280;41637;52.364;9.910;2023-05-21T12:57:26;100919.59;;;32.01;35.71
55733;BME280;41637;52.364;9.910;2023-05-21T12:59:57;100916.15;;;32.20;35.28
55733;BME280;41637;52.364;9.910;2023-05-21T13:02:30;100912.33;;;32.49;34.91
55733;BME280;41637;52.364;9.910;2023-05-21T13:05:00;100913.06;;;32.72;34.68
55733;BME280;41637;52.364;9.910;2023-05-21T13:07:28;100910.27;;;32.76;34.77
55733;BME280;41637;52.364;9.910;2023-05-21T13:09:56;100909.90;;;32.73;34.56